sensor_id;sensor_type;location;lat;lon;timestamp;temperature;humidity
2463;DHT22;1243;54.298;10.172;2023-08-01T00:00:50;16.90;99.90
2463;DHT22;1243;54.298;10.172;2023-08-01T00:03:15;16.90;99.90
2463;DHT22;1243;54.298;10.172;2023-08-01T00:05:41;16.80;99.90
2463;DHT22;1243;54.298;10.172;2023-08-01T00:08:14;16.90;99.90
2463;DHT22;1243;54.298;10.172;2023-08-01T00:10:40;16.80;99.90
2463;DHT22;1243;54.298;10.172;2023-08-01T00:13:06;16.80;99.90
2463;DHT22;1243;54.298;10.172;2023-08-01T00:15:33;16.80;99.90
2463;DHT22;1243;54.298;10.172;2023-08-01T00:17:59;16.80;99.90
2463;DHT22;1243;54.298;10.172;2023-08-01T00:20:25;16.80;99.90
2463;DHT22;1243;54.298;10.172;2023-08-01T00:22:50;16.70;99.90
2463;DHT22;1243;54.298;10.172;2023-08-01T00:25:17;16.70;99.90
2463;DHT22;1243;54.298;10.172;2023-08-01T00:27:43;16.70;99.90
2463;DHT22;1243;54.298;10.172;2023-08-01T00:30:09;16.60;99.90
2463;DHT22;1243;54.298;10.172;2023-08-01T00:32:35;16.60;99.90
2463;DHT22;1243;54.298;10.172;2023-08-01T00:35:02;16.60;99.90
2463;DHT22;1243;54.298;10.172;2023-08-01T00:37:28;16.60;99.90
2463;DHT22;1243;54.298;10.172;2023-08-01T00:39:54;16.60;99.90
2463;DHT22;1243;54.298;10.172;2023-08-01T00:42:19;16.60;99.90
2463;DHT22;1243;54.298;10.172;2023-08-01T00:44:45;16.60;99.90
2463;DHT22;1243;54.298;10.172;2023-08-01T00:47:13;16.60;99.90
2463;DHT22;1243;54.298;10.172;2023-08-01T00:49:39;16.50;99.90
2463;DHT22;1243;54.298;10.172;2023-08-01T00:52:06;16.50;99.90
2463;DHT22;1243;54.298;10.172;2023-08-01T00:54:32;16.50;99.90
2463;DHT22;1243;54.298;10.172;2023-08-01T00:57:05;16.50;99.90
2463;DHT22;1243;54.298;10.172;2023-08-01T00:59:31;16.50;99.90
2463;DHT22;1243;54.298;10.172;2023-08-01T01:01:59;16.50;99.90
2463;DHT22;1243;54.298;10.172;2023-08-01T01:04:25;16.50;99.90
2463;DHT22;1243;54.298;10.172;2023-08-01T01:09:28;16.50;99.90
2463;DHT22;1243;54.298;10.172;2023-08-01T01:11:54;16.50;99.90
2463;DHT22;1243;54.298;10.172;2023-08-01T01:14:20;16.50;99.90
2463;DHT22;1243;54.298;10.172;2023-08-01T01:16:46;16.50;99.90
2463;DHT22;1243;54.298;10.172;2023-08-01T01:19:11;16.50;99.90
2463;DHT22;1243;54.298;10.172;2023-08-01T01:21:41;16.50;99.90
2463;DHT22;1243;54.298;10.172;2023-08-01T01:24:10;16.50;99.90
2463;DHT22;1243;54.298;10.172;2023-08-01T01:26:37;16.50;99.90
2463;DHT22;1243;54.298;10.172;2023-08-01T01:29:04;16.50;99.90
2463;DHT22;1243;54.298;10.172;2023-08-01T01:31:32;16.50;99.90
2463;DHT22;1243;54.298;10.172;2023-08-01T01:33:59;16.50;99.90
2463;DHT22;1243;54.298;10.172;2023-08-01T01:36:24;16.50;99.90
2463;DHT22;1243;54.298;10.172;2023-08-01T01:38:50;16.50;99.90
2463;DHT22;1243;54.298;10.172;2023-08-01T01:41:16;16.60;99.90
2463;DHT22;1243;54.298;10.172;2023-08-01T01:43:41;16.60;99.90
2463;DHT22;1243;54.298;10.172;2023-08-01T01:46:07;16.60;99.90
2463;DHT22;1243;54.298;10.172;2023-08-01T01:48:33;16.70;99.90
2463;DHT22;1243;54.298;10.172;2023-08-01T01:50:58;16.70;99.90
2463;DHT22;1243;54.298;10.172;2023-08-01T01:53:24;16.70;99.90
2463;DHT22;1243;54.298;10.172;2023-08-01T01:55:50;16.70;99.90
2463;DHT22;1243;54.298;10.172;2023-08-01T01:58:15;16.70;99.90
2463;DHT22;1243;54.298;10.172;2023-08-01T02:00:41;16.70;99.90
2463;DHT22;1243;54.298;10.172;2023-08-01T02:03:07;16.70;99.90
2463;DHT22;1243;54.298;10.172;2023-08-01T02:05:36;16.70;99.90
2463;DHT22;1243;54.298;10.172;2023-08-01T02:08:02;16.70;99.90
2463;DHT22;1243;54.298;10.172;2023-08-01T02:10:28;16.70;99.90
2463;DHT22;1243;54.298;10.172;2023-08-01T02:12:54;16.70;99.90
2463;DHT22;1243;54.298;10.172;2023-08-01T02:15:19;16.70;99.90
2463;DHT22;1243;54.298;10.172;2023-08-01T02:17:45;16.70;99.90
2463;DHT22;1243;54.298;10.172;2023-08-01T02:20:11;16.70;99.90
2463;DHT22;1243;54.298;10.172;2023-08-01T02:22:36;16.70;99.90
2463;DHT22;1243;54.298;10.172;2023-08-01T02:25:02;16.70;99.90
2463;DHT22;1243;54.298;10.172;2023-08-01T02:27:28;16.70;99.90
2463;DHT22;1243;54.298;10.172;2023-08-01T02:29:54;16.60;99.90
2463;DHT22;1243;54.298;10.172;2023-08-01T02:32:19;16.70;99.90
2463;DHT22;1243;54.298;10.172;2023-08-01T02:34:45;16.60;99.90
2463;DHT22;1243;54.298;10.172;2023-08-01T02:37:11;16.60;99.90
2463;DHT22;1243;54.298;10.172;2023-08-01T02:39:37;16.60;99.90
2463;DHT22;1243;54.298;10.172;2023-08-01T02:42:02;16.70;99.90
2463;DHT22;1243;54.298;10.172;2023-08-01T02:44:29;16.70;99.90
2463;DHT22;1243;54.298;10.172;2023-08-01T02:46:54;16.70;99.90
2463;DHT22;1243;54.298;10.172;2023-08-01T02:49:20;16.70;99.90
2463;DHT22;1243;54.298;10.172;2023-08-01T02:51:45;16.70;99.90
2463;DHT22;1243;54.298;10.172;2023-08-01T02:54:11;16.70;99.90
2463;DHT22;1243;54.298;10.172;2023-08-01T02:56:37;16.70;99.90
2463;DHT22;1243;54.298;10.172;2023-08-01T02:59:09;16.70;99.90
2463;DHT22;1243;54.298;10.172;2023-08-01T03:01:38;16.70;99.90
2463;DHT22;1243;54.298;10.172;2023-08-01T03:04:05;16.70;99.90
2463;DHT22;1243;54.298;10.172;2023-08-01T03:06:34;16.70;99.90
2463;DHT22;1243;54.298;10.172;2023-08-01T03:09:00;16.60;99.90
2463;DHT22;1243;54.298;10.172;2023-08-01T03:11:26;16.70;99.90
2463;DHT22;1243;54.298;10.172;2023-08-01T03:13:52;16.70;99.90
2463;DHT22;1243;54.298;10.172;2023-08-01T03:16:18;16.60;99.90
2463;DHT22;1243;54.298;10.172;2023-08-01T03:18:44;16.70;99.90
2463;DHT22;1243;54.298;10.172;2023-08-01T03:21:10;16.70;99.90
2463;DHT22;1243;54.298;10.172;2023-08-01T03:23:36;16.70;99.90
2463;DHT22;1243;54.298;10.172;2023-08-01T03:26:02;16.70;99.90
2463;DHT22;1243;54.298;10.172;2023-08-01T03:28:28;16.70;99.90
2463;DHT22;1243;54.298;10.172;2023-08-01T03:30:54;16.70;99.90
2463;DHT22;1243;54.298;10.172;2023-08-01T03:33:20;16.70;99.90
2463;DHT22;1243;54.298;10.172;2023-08-01T03:35:46;16.70;99.90
2463;DHT22;1243;54.298;10.172;2023-08-01T03:38:12;16.70;99.90
2463;DHT22;1243;54.298;10.172;2023-08-01T03:40:38;16.70;99.90
2463;DHT22;1243;54.298;10.172;2023-08-01T03:43:04;16.70;99.90
2463;DHT22;1243;54.298;10.172;2023-08-01T03:45:30;16.70;99.90
2463;DHT22;1243;54.298;10.172;2023-08-01T03:47:56;16.70;99.90
2463;DHT22;1243;54.298;10.172;2023-08-01T03:50:22;16.70;99.90
2463;DHT22;1243;54.298;10.172;2023-08-01T03:52:47;16.70;99.90
2463;DHT22;1243;54.298;10.172;2023-08-01T03:55:13;16.70;99.90
2463;DHT22;1243;54.298;10.172;2023-08-01T03:57:39;16.70;99.90
2463;DHT22;1243;54.298;10.172;2023-08-01T04:00:06;16.60;99.90
2463;DHT22;1243;54.298;10.172;2023-08-01T04:02:42;16.50;99.90
2463;DHT22;1243;54.298;10.172;2023-08-01T04:05:08;16.50;99.90
2463;DHT22;1243;54.298;10.172;2023-08-01T04:07:37;16.50;99.90
2463;DHT22;1243;54.298;10.172;2023-08-01T04:10:04;16.50;99.90
2463;DHT22;1243;54.298;10.172;2023-08-01T04:12:33;16.50;99.90
2463;DHT22;1243;54.298;10.172;2023-08-01T04:14:59;16.50;99.90
2463;DHT22;1243;54.298;10.172;2023-08-01T04:17:25;16.40;99.90
2463;DHT22;1243;54.298;10.172;2023-08-01T04:19:51;16.50;99.90
2463;DHT22;1243;54.298;10.172;2023-08-01T04:22:17;16.40;99.90
2463;DHT22;1243;54.298;10.172;2023-08-01T04:24:42;16.40;99.90
2463;DHT22;1243;54.298;10.172;2023-08-01T04:27:08;16.40;99.90
2463;DHT22;1243;54.298;10.172;2023-08-01T04:29:34;16.40;99.90
2463;DHT22;1243;54.298;10.172;2023-08-01T04:32:00;16.40;99.90
2463;DHT22;1243;54.298;10.172;2023-08-01T04:34:26;16.40;99.90
2463;DHT22;1243;54.298;10.172;2023-08-01T04:36:51;16.40;99.90
2463;DHT22;1243;54.298;10.172;2023-08-01T04:39:17;16.40;99.90
2463;DHT22;1243;54.298;10.172;2023-08-01T04:41:43;16.40;99.90
2463;DHT22;1243;54.298;10.172;2023-08-01T04:44:08;16.50;99.90
2463;DHT22;1243;54.298;10.172;2023-08-01T04:46:34;16.40;99.90
2463;DHT22;1243;54.298;10.172;2023-08-01T04:49:00;16.50;99.90
2463;DHT22;1243;54.298;10.172;2023-08-01T04:51:25;16.50;99.90
2463;DHT22;1243;54.298;10.172;2023-08-01T04:53:51;16.40;99.90
2463;DHT22;1243;54.298;10.172;2023-08-01T04:56:17;16.40;99.90
2463;DHT22;1243;54.298;10.172;2023-08-01T04:58:43;16.50;99.90
2463;DHT22;1243;54.298;10.172;2023-08-01T05:01:09;16.50;99.90
2463;DHT22;1243;54.298;10.172;2023-08-01T05:03:34;16.40;99.90
2463;DHT22;1243;54.298;10.172;2023-08-01T05:06:00;16.40;99.90
2463;DHT22;1243;54.298;10.172;2023-08-01T05:08:26;16.40;99.90
2463;DHT22;1243;54.298;10.172;2023-08-01T05:10:51;16.30;99.90
2463;DHT22;1243;54.298;10.172;2023-08-01T05:13:18;16.30;99.90
2463;DHT22;1243;54.298;10.172;2023-08-01T05:15:47;16.20;99.90
2463;DHT22;1243;54.298;10.172;2023-08-01T05:18:14;16.10;99.90
2463;DHT22;1243;54.298;10.172;2023-08-01T05:20:40;16.10;99.90
2463;DHT22;1243;54.298;10.172;2023-08-01T05:23:05;16.10;99.90
2463;DHT22;1243;54.298;10.172;2023-08-01T05:25:31;16.10;99.90
2463;DHT22;1243;54.298;10.172;2023-08-01T05:27:57;16.10;99.90
2463;DHT22;1243;54.298;10.172;2023-08-01T05:30:23;16.10;99.90
2463;DHT22;1243;54.298;10.172;2023-08-01T05:32:49;16.20;99.90
2463;DHT22;1243;54.298;10.172;2023-08-01T05:35:15;16.20;99.90
2463;DHT22;1243;54.298;10.172;2023-08-01T05:37:41;16.20;99.90
2463;DHT22;1243;54.298;10.172;2023-08-01T05:40:07;16.30;99.90
2463;DHT22;1243;54.298;10.172;2023-08-01T05:42:33;16.30;99.90
2463;DHT22;1243;54.298;10.172;2023-08-01T05:44:59;16.30;99.90
2463;DHT22;1243;54.298;10.172;2023-08-01T05:47:24;16.30;99.90
2463;DHT22;1243;54.298;10.172;2023-08-01T05:49:50;16.30;99.90
2463;DHT22;1243;54.298;10.172;2023-08-01T05:52:16;16.30;99.90
2463;DHT22;1243;54.298;10.172;2023-08-01T05:54:41;16.30;99.90
2463;DHT22;1243;54.298;10.172;2023-08-01T05:57:07;16.30;99.90
2463;DHT22;1243;54.298;10.172;2023-08-01T05:59:33;16.30;99.90
2463;DHT22;1243;54.298;10.172;2023-08-01T06:01:59;16.30;99.90
2463;DHT22;1243;54.298;10.172;2023-08-01T06:04:25;16.20;99.90
2463;DHT22;1243;54.298;10.172;2023-08-01T06:06:51;16.10;99.90
2463;DHT22;1243;54.298;10.172;2023-08-01T06:09:16;16.10;99.90
2463;DHT22;1243;54.298;10.172;2023-08-01T06:11:42;16.10;99.90
2463;DHT22;1243;54.298;10.172;2023-08-01T06:14:09;16.00;99.90
2463;DHT22;1243;54.298;10.172;2023-08-01T06:16:35;16.00;99.90
2463;DHT22;1243;54.298;10.172;2023-08-01T06:19:01;16.00;99.90
2463;DHT22;1243;54.298;10.172;2023-08-01T06:21:27;16.00;99.90
2463;DHT22;1243;54.298;10.172;2023-08-01T06:23:52;15.90;99.90
2463;DHT22;1243;54.298;10.172;2023-08-01T06:26:18;15.90;99.90
2463;DHT22;1243;54.298;10.172;2023-08-01T06:28:44;15.90;99.90
2463;DHT22;1243;54.298;10.172;2023-08-01T06:31:09;16.00;99.90
2463;DHT22;1243;54.298;10.172;2023-08-01T06:33:35;16.00;99.90
2463;DHT22;1243;54.298;10.172;2023-08-01T06:36:01;16.00;99.90
2463;DHT22;1243;54.298;10.172;2023-08-01T06:38:27;16.00;99.90
2463;DHT22;1243;54.298;10.172;2023-08-01T06:40:52;16.00;99.90
2463;DHT22;1243;54.298;10.172;2023-08-01T06:43:18;15.90;99.90
2463;DHT22;1243;54.298;10.172;2023-08-01T06:45:44;15.90;99.90
2463;DHT22;1243;54.298;10.172;2023-08-01T06:48:09;15.80;99.90
2463;DHT22;1243;54.298;10.172;2023-08-01T06:50:35;15.80;99.90
2463;DHT22;1243;54.298;10.172;2023-08-01T06:53:01;15.90;99.90
2463;DHT22;1243;54.298;10.172;2023-08-01T06:55:27;15.90;99.90
2463;DHT22;1243;54.298;10.172;2023-08-01T06:57:53;15.90;99.90
2463;DHT22;1243;54.298;10.172;2023-08-01T07:00:18;15.80;99.90
2463;DHT22;1243;54.298;10.172;2023-08-01T07:02:44;15.80;99.90
2463;DHT22;1243;54.298;10.172;2023-08-01T07:05:10;15.80;99.90
2463;DHT22;1243;54.298;10.172;2023-08-01T07:07:35;15.90;99.90
2463;DHT22;1243;54.298;10.172;2023-08-01T07:10:01;15.90;99.90
2463;DHT22;1243;54.298;10.172;2023-08-01T07:12:27;15.80;99.90
2463;DHT22;1243;54.298;10.172;2023-08-01T07:14:52;15.80;99.90
2463;DHT22;1243;54.298;10.172;2023-08-01T07:17:18;15.90;99.90
2463;DHT22;1243;54.298;10.172;2023-08-01T07:19:44;16.00;99.90
2463;DHT22;1243;54.298;10.172;2023-08-01T07:22:10;16.00;99.90
2463;DHT22;1243;54.298;10.172;2023-08-01T07:24:35;16.00;99.90
2463;DHT22;1243;54.298;10.172;2023-08-01T07:27:01;16.00;99.90
2463;DHT22;1243;54.298;10.172;2023-08-01T07:29:27;16.00;99.90
2463;DHT22;1243;54.298;10.172;2023-08-01T07:31:52;16.00;99.90
2463;DHT22;1243;54.298;10.172;2023-08-01T07:34:18;16.00;99.90
2463;DHT22;1243;54.298;10.172;2023-08-01T07:36:47;16.10;99.90
2463;DHT22;1243;54.298;10.172;2023-08-01T07:39:14;16.10;99.90
2463;DHT22;1243;54.298;10.172;2023-08-01T07:41:39;16.10;99.90
2463;DHT22;1243;54.298;10.172;2023-08-01T07:44:05;16.10;99.90
2463;DHT22;1243;54.298;10.172;2023-08-01T07:46:32;16.10;99.90
2463;DHT22;1243;54.298;10.172;2023-08-01T07:48:58;16.20;99.90
2463;DHT22;1243;54.298;10.172;2023-08-01T07:51:25;16.20;99.90
2463;DHT22;1243;54.298;10.172;2023-08-01T07:53:52;16.20;99.90
2463;DHT22;1243;54.298;10.172;2023-08-01T07:56:19;16.30;99.90
2463;DHT22;1243;54.298;10.172;2023-08-01T07:58:45;16.50;99.90
2463;DHT22;1243;54.298;10.172;2023-08-01T08:01:10;16.70;99.90
2463;DHT22;1243;54.298;10.172;2023-08-01T08:03:36;16.90;99.90
2463;DHT22;1243;54.298;10.172;2023-08-01T08:06:02;16.90;99.90
2463;DHT22;1243;54.298;10.172;2023-08-01T08:08:29;17.10;99.90
2463;DHT22;1243;54.298;10.172;2023-08-01T08:10:55;17.10;99.90
2463;DHT22;1243;54.298;10.172;2023-08-01T08:13:21;17.20;99.90
2463;DHT22;1243;54.298;10.172;2023-08-01T08:15:47;17.20;99.90
2463;DHT22;1243;54.298;10.172;2023-08-01T08:18:13;17.10;99.90
2463;DHT22;1243;54.298;10.172;2023-08-01T08:20:44;17.10;99.90
2463;DHT22;1243;54.298;10.172;2023-08-01T08:23:10;17.10;99.90
2463;DHT22;1243;54.298;10.172;2023-08-01T08:25:36;17.10;99.90
2463;DHT22;1243;54.298;10.172;2023-08-01T08:28:02;17.10;99.90
2463;DHT22;1243;54.298;10.172;2023-08-01T08:30:28;17.10;99.90
2463;DHT22;1243;54.298;10.172;2023-08-01T08:32:54;17.10;99.90
2463;DHT22;1243;54.298;10.172;2023-08-01T08:35:20;17.10;99.90
2463;DHT22;1243;54.298;10.172;2023-08-01T08:37:45;17.00;99.90
2463;DHT22;1243;54.298;10.172;2023-08-01T08:40:12;17.00;99.90
2463;DHT22;1243;54.298;10.172;2023-08-01T08:42:39;17.10;99.90
2463;DHT22;1243;54.298;10.172;2023-08-01T08:45:06;17.30;99.90
2463;DHT22;1243;54.298;10.172;2023-08-01T08:47:36;17.40;99.90
2463;DHT22;1243;54.298;10.172;2023-08-01T08:50:02;17.50;99.90
2463;DHT22;1243;54.298;10.172;2023-08-01T08:52:28;17.60;99.90
2463;DHT22;1243;54.298;10.172;2023-08-01T08:54:55;17.70;99.90
2463;DHT22;1243;54.298;10.172;2023-08-01T08:57:22;18.00;99.90
2463;DHT22;1243;54.298;10.172;2023-08-01T08:59:49;18.00;99.90
2463;DHT22;1243;54.298;10.172;2023-08-01T09:02:15;18.20;99.90
2463;DHT22;1243;54.298;10.172;2023-08-01T09:04:42;18.50;99.90
2463;DHT22;1243;54.298;10.172;2023-08-01T09:07:09;18.70;99.90
2463;DHT22;1243;54.298;10.172;2023-08-01T09:09:37;18.70;99.90
2463;DHT22;1243;54.298;10.172;2023-08-01T09:12:03;18.60;99.90
2463;DHT22;1243;54.298;10.172;2023-08-01T09:14:29;18.50;99.90
2463;DHT22;1243;54.298;10.172;2023-08-01T09:17:06;18.50;98.50
2463;DHT22;1243;54.298;10.172;2023-08-01T09:19:32;18.60;87.30
2463;DHT22;1243;54.298;10.172;2023-08-01T09:21:58;18.70;66.00
2463;DHT22;1243;54.298;10.172;2023-08-01T09:24:24;18.70;12.40
2463;DHT22;1243;54.298;10.172;2023-08-01T09:26:50;18.80;1.00
2463;DHT22;1243;54.298;10.172;2023-08-01T09:29:20;18.90;1.00
2463;DHT22;1243;54.298;10.172;2023-08-01T09:31:46;18.80;1.00
2463;DHT22;1243;54.298;10.172;2023-08-01T09:34:20;18.80;1.00
2463;DHT22;1243;54.298;10.172;2023-08-01T09:36:46;18.90;1.00
2463;DHT22;1243;54.298;10.172;2023-08-01T09:39:17;19.00;1.00
2463;DHT22;1243;54.298;10.172;2023-08-01T09:41:43;19.30;1.00
2463;DHT22;1243;54.298;10.172;2023-08-01T09:44:15;19.40;1.00
2463;DHT22;1243;54.298;10.172;2023-08-01T09:46:41;19.40;1.00
2463;DHT22;1243;54.298;10.172;2023-08-01T09:49:09;19.20;1.00
2463;DHT22;1243;54.298;10.172;2023-08-01T09:51:49;18.90;1.00
2463;DHT22;1243;54.298;10.172;2023-08-01T09:54:15;18.50;1.00
2463;DHT22;1243;54.298;10.172;2023-08-01T09:56:47;18.30;1.00
2463;DHT22;1243;54.298;10.172;2023-08-01T09:59:19;18.20;1.00
2463;DHT22;1243;54.298;10.172;2023-08-01T10:01:51;18.10;1.00
2463;DHT22;1243;54.298;10.172;2023-08-01T10:04:29;17.90;1.00
2463;DHT22;1243;54.298;10.172;2023-08-01T10:07:07;17.80;1.00
2463;DHT22;1243;54.298;10.172;2023-08-01T10:09:34;17.60;1.00
2463;DHT22;1243;54.298;10.172;2023-08-01T10:12:05;17.60;1.00
2463;DHT22;1243;54.298;10.172;2023-08-01T10:14:32;17.70;1.00
2463;DHT22;1243;54.298;10.172;2023-08-01T10:16:58;18.10;1.00
2463;DHT22;1243;54.298;10.172;2023-08-01T10:19:24;18.20;1.00
2463;DHT22;1243;54.298;10.172;2023-08-01T10:21:50;18.10;1.00
2463;DHT22;1243;54.298;10.172;2023-08-01T10:24:17;18.00;1.00
2463;DHT22;1243;54.298;10.172;2023-08-01T10:26:46;17.90;1.00
2463;DHT22;1243;54.298;10.172;2023-08-01T10:29:12;17.90;1.00
2463;DHT22;1243;54.298;10.172;2023-08-01T10:31:38;17.80;1.00
2463;DHT22;1243;54.298;10.172;2023-08-01T10:34:12;17.80;1.00
2463;DHT22;1243;54.298;10.172;2023-08-01T10:36:38;17.70;1.00
2463;DHT22;1243;54.298;10.172;2023-08-01T10:39:04;17.60;1.00
2463;DHT22;1243;54.298;10.172;2023-08-01T10:41:35;17.60;1.00
2463;DHT22;1243;54.298;10.172;2023-08-01T10:44:19;17.70;1.00
2463;DHT22;1243;54.298;10.172;2023-08-01T10:46:54;17.70;1.00
2463;DHT22;1243;54.298;10.172;2023-08-01T10:49:32;17.80;1.00
2463;DHT22;1243;54.298;10.172;2023-08-01T10:51:58;18.00;1.00
2463;DHT22;1243;54.298;10.172;2023-08-01T10:54:25;18.30;1.00
2463;DHT22;1243;54.298;10.172;2023-08-01T10:56:56;18.60;1.00
2463;DHT22;1243;54.298;10.172;2023-08-01T10:59:25;19.00;1.00
2463;DHT22;1243;54.298;10.172;2023-08-01T11:01:53;19.50;1.00
2463;DHT22;1243;54.298;10.172;2023-08-01T11:04:21;20.00;1.00
2463;DHT22;1243;54.298;10.172;2023-08-01T11:06:49;20.50;1.00
2463;DHT22;1243;54.298;10.172;2023-08-01T11:09:26;20.70;99.90
2463;DHT22;1243;54.298;10.172;2023-08-01T11:11:59;20.60;99.90
2463;DHT22;1243;54.298;10.172;2023-08-01T11:14:27;20.30;99.90
2463;DHT22;1243;54.298;10.172;2023-08-01T11:16:57;20.30;99.90
2463;DHT22;1243;54.298;10.172;2023-08-01T11:19:29;20.60;99.90
2463;DHT22;1243;54.298;10.172;2023-08-01T11:21:56;20.80;99.90
2463;DHT22;1243;54.298;10.172;2023-08-01T11:24:24;20.80;99.90
2463;DHT22;1243;54.298;10.172;2023-08-01T11:26:51;21.10;99.90
2463;DHT22;1243;54.298;10.172;2023-08-01T11:29:18;21.80;99.90
2463;DHT22;1243;54.298;10.172;2023-08-01T11:32:00;22.40;96.60
2463;DHT22;1243;54.298;10.172;2023-08-01T11:34:26;22.30;63.90
2463;DHT22;1243;54.298;10.172;2023-08-01T11:36:53;22.00;56.90
2463;DHT22;1243;54.298;10.172;2023-08-01T11:39:19;22.10;68.10
2463;DHT22;1243;54.298;10.172;2023-08-01T11:41:47;22.20;68.30
2463;DHT22;1243;54.298;10.172;2023-08-01T11:44:13;22.00;21.10
2463;DHT22;1243;54.298;10.172;2023-08-01T11:46:39;21.30;1.00
2463;DHT22;1243;54.298;10.172;2023-08-01T11:49:06;20.70;1.00
2463;DHT22;1243;54.298;10.172;2023-08-01T11:51:40;20.00;1.00
2463;DHT22;1243;54.298;10.172;2023-08-01T11:54:06;19.40;8.20
2463;DHT22;1243;54.298;10.172;2023-08-01T11:56:33;18.80;21.90
2463;DHT22;1243;54.298;10.172;2023-08-01T11:58:59;18.60;63.40
2463;DHT22;1243;54.298;10.172;2023-08-01T12:01:25;18.30;59.20
2463;DHT22;1243;54.298;10.172;2023-08-01T12:03:53;18.20;92.50
2463;DHT22;1243;54.298;10.172;2023-08-01T12:06:20;18.60;99.90
2463;DHT22;1243;54.298;10.172;2023-08-01T12:08:48;19.60;99.90
2463;DHT22;1243;54.298;10.172;2023-08-01T12:11:32;20.70;99.90
2463;DHT22;1243;54.298;10.172;2023-08-01T12:16:29;22.30;82.20
2463;DHT22;1243;54.298;10.172;2023-08-01T12:18:56;22.50;51.90
2463;DHT22;1243;54.298;10.172;2023-08-01T12:21:22;22.00;15.20
2463;DHT22;1243;54.298;10.172;2023-08-01T12:23:47;21.30;8.50
2463;DHT22;1243;54.298;10.172;2023-08-01T12:26:13;20.50;1.00
2463;DHT22;1243;54.298;10.172;2023-08-01T12:28:39;19.50;1.00
2463;DHT22;1243;54.298;10.172;2023-08-01T12:31:05;18.90;7.50
2463;DHT22;1243;54.298;10.172;2023-08-01T12:33:31;18.30;26.20
2463;DHT22;1243;54.298;10.172;2023-08-01T12:35:58;17.80;66.20
2463;DHT22;1243;54.298;10.172;2023-08-01T12:38:23;17.50;94.80
2463;DHT22;1243;54.298;10.172;2023-08-01T12:40:49;17.40;99.90
2463;DHT22;1243;54.298;10.172;2023-08-01T12:43:15;17.30;99.90
2463;DHT22;1243;54.298;10.172;2023-08-01T12:45:42;17.00;99.90
2463;DHT22;1243;54.298;10.172;2023-08-01T12:48:07;17.00;99.90
2463;DHT22;1243;54.298;10.172;2023-08-01T12:50:33;16.90;99.90
2463;DHT22;1243;54.298;10.172;2023-08-01T12:52:59;16.80;99.90
2463;DHT22;1243;54.298;10.172;2023-08-01T12:55:25;16.80;99.90
2463;DHT22;1243;54.298;10.172;2023-08-01T12:57:50;16.80;99.90
2463;DHT22;1243;54.298;10.172;2023-08-01T13:00:17;16.70;99.90
2463;DHT22;1243;54.298;10.172;2023-08-01T13:02:43;16.70;99.90
2463;DHT22;1243;54.298;10.172;2023-08-01T13:05:09;16.70;99.90
2463;DHT22;1243;54.298;10.172;2023-08-01T13:07:35;16.70;99.90
2463;DHT22;1243;54.298;10.172;2023-08-01T13:10:02;16.80;99.90
2463;DHT22;1243;54.298;10.172;2023-08-01T13:12:28;16.90;99.90
2463;DHT22;1243;54.298;10.172;2023-08-01T13:14:54;17.00;99.90
2463;DHT22;1243;54.298;10.172;2023-08-01T13:17:19;17.00;99.90
2463;DHT22;1243;54.298;10.172;2023-08-01T13:19:45;17.10;99.90
2463;DHT22;1243;54.298;10.172;2023-08-01T13:22:11;17.10;99.90
2463;DHT22;1243;54.298;10.172;2023-08-01T13:24:37;17.10;99.90
2463;DHT22;1243;54.298;10.172;2023-08-01T13:27:03;17.20;99.90
2463;DHT22;1243;54.298;10.172;2023-08-01T13:29:28;17.40;99.90
2463;DHT22;1243;54.298;10.172;2023-08-01T13:31:54;17.60;99.90
2463;DHT22;1243;54.298;10.172;2023-08-01T13:34:20;17.80;99.90
2463;DHT22;1243;54.298;10.172;2023-08-01T13:36:45;17.90;99.90
2463;DHT22;1243;54.298;10.172;2023-08-01T13:39:11;17.90;99.90
2463;DHT22;1243;54.298;10.172;2023-08-01T13:41:37;17.70;99.90
2463;DHT22;1243;54.298;10.172;2023-08-01T13:44:03;17.80;99.90
2463;DHT22;1243;54.298;10.172;2023-08-01T13:46:29;17.80;99.90
2463;DHT22;1243;54.298;10.172;2023-08-01T13:48:55;17.80;99.90
2463;DHT22;1243;54.298;10.172;2023-08-01T13:51:20;17.90;99.90
2463;DHT22;1243;54.298;10.172;2023-08-01T13:53:46;18.00;99.90
2463;DHT22;1243;54.298;10.172;2023-08-01T13:56:13;18.10;99.90
2463;DHT22;1243;54.298;10.172;2023-08-01T13:58:40;18.00;99.90
2463;DHT22;1243;54.298;10.172;2023-08-01T14:01:06;17.90;99.90
2463;DHT22;1243;54.298;10.172;2023-08-01T14:03:37;17.90;99.90
2463;DHT22;1243;54.298;10.172;2023-08-01T14:06:08;17.90;99.90
2463;DHT22;1243;54.298;10.172;2023-08-01T14:08:35;17.90;99.90
2463;DHT22;1243;54.298;10.172;2023-08-01T14:11:05;18.00;99.90
2463;DHT22;1243;54.298;10.172;2023-08-01T14:13:31;18.00;99.90
2463;DHT22;1243;54.298;10.172;2023-08-01T14:15:57;18.10;99.90
2463;DHT22;1243;54.298;10.172;2023-08-01T14:18:23;18.50;99.90
2463;DHT22;1243;54.298;10.172;2023-08-01T14:20:48;18.70;99.90
2463;DHT22;1243;54.298;10.172;2023-08-01T14:23:16;19.10;99.90
2463;DHT22;1243;54.298;10.172;2023-08-01T14:25:42;19.50;99.90
2463;DHT22;1243;54.298;10.172;2023-08-01T14:28:08;19.80;99.90
2463;DHT22;1243;54.298;10.172;2023-08-01T14:30:34;20.10;99.90
2463;DHT22;1243;54.298;10.172;2023-08-01T14:33:04;20.40;99.90
2463;DHT22;1243;54.298;10.172;2023-08-01T14:35:31;20.50;99.90
2463;DHT22;1243;54.298;10.172;2023-08-01T14:37:56;20.70;99.90
2463;DHT22;1243;54.298;10.172;2023-08-01T14:40:24;20.70;99.90
2463;DHT22;1243;54.298;10.172;2023-08-01T14:42:50;20.90;99.90
2463;DHT22;1243;54.298;10.172;2023-08-01T14:45:17;21.00;99.90
2463;DHT22;1243;54.298;10.172;2023-08-01T14:47:44;20.90;99.90
2463;DHT22;1243;54.298;10.172;2023-08-01T14:50:11;20.80;99.90
2463;DHT22;1243;54.298;10.172;2023-08-01T14:52:36;20.60;99.90
2463;DHT22;1243;54.298;10.172;2023-08-01T14:55:02;20.70;99.90
2463;DHT22;1243;54.298;10.172;2023-08-01T14:57:28;20.30;95.80
2463;DHT22;1243;54.298;10.172;2023-08-01T14:59:54;20.20;95.80
2463;DHT22;1243;54.298;10.172;2023-08-01T15:02:20;20.30;90.10
2463;DHT22;1243;54.298;10.172;2023-08-01T15:04:50;20.30;90.60
2463;DHT22;1243;54.298;10.172;2023-08-01T15:07:17;20.50;95.90
2463;DHT22;1243;54.298;10.172;2023-08-01T15:09:43;20.70;96.00
2463;DHT22;1243;54.298;10.172;2023-08-01T15:12:09;20.90;96.00
2463;DHT22;1243;54.298;10.172;2023-08-01T15:14:36;21.00;77.90
2463;DHT22;1243;54.298;10.172;2023-08-01T15:17:03;20.80;42.60
2463;DHT22;1243;54.298;10.172;2023-08-01T15:19:29;20.50;3.40
2463;DHT22;1243;54.298;10.172;2023-08-01T15:21:56;20.20;1.40
2463;DHT22;1243;54.298;10.172;2023-08-01T15:24:22;20.00;12.30
2463;DHT22;1243;54.298;10.172;2023-08-01T15:26:48;19.90;14.40
2463;DHT22;1243;54.298;10.172;2023-08-01T15:29:15;19.80;19.30
2463;DHT22;1243;54.298;10.172;2023-08-01T15:31:41;20.00;38.60
2463;DHT22;1243;54.298;10.172;2023-08-01T15:34:06;19.90;23.90
2463;DHT22;1243;54.298;10.172;2023-08-01T15:36:34;20.00;56.20
2463;DHT22;1243;54.298;10.172;2023-08-01T15:39:01;20.10;54.90
2463;DHT22;1243;54.298;10.172;2023-08-01T15:41:27;20.10;28.50
2463;DHT22;1243;54.298;10.172;2023-08-01T15:43:53;20.10;34.70
2463;DHT22;1243;54.298;10.172;2023-08-01T15:46:19;20.30;30.90
2463;DHT22;1243;54.298;10.172;2023-08-01T15:48:45;20.20;20.10